Attica, KS

3:31 PM CST on December 20, 2014 (GMT -0600)
Weed Dept | Change Station
CLOSE
Current Station
Personal Weather Station
Location: Anthony, KS
Elevation: 1352 ft
Nearby Weather Stations

Elev 1352 ft 37.15 °N, 98.06 °W | Updated 7 minutes ago

Mostly Cloudy
Mostly Cloudy
44.2 °F
Feels Like 38 °F
N
11.4
Wind Variable Wind from SSW

Today
High -- | Low -- °F
--% Chance of Precip.
Yesterday
High -- | Low -- °F
Precip. -- in
7:42 AM 5:18 PM
Waning Crescent, 2% visible
Pressure 30.10 in
Visibility 10.0 miles
Clouds Overcast 1700 ft
Windchill 38 °F
Dew Point 40 °F
Humidity 86%
Rainfall 0.00 in
Snow Depth Not available.
UV 0 out of 12
Pollen .10 out of 12
Air Quality Not available.
Flu Activity Not available.
METAR KAVK 202115Z AUTO 20010KT 10SM OVC017 07/04 A3010 RMK AO2

More Conditions Fewer Conditions

Pressure 30.10 in
Visibility 10.0 miles
Clouds Overcast 1700 ft
Windchill 38 °F
Dew Point 40 °F
Humidity 86%
Rainfall 0.00 in
Snow Depth Not available.
UV 0 out of 12
Pollen .10 out of 12
Air Quality Not available.
Flu Activity Not available.
METAR KAVK 202115Z AUTO 20010KT 10SM OVC017 07/04 A3010 RMK AO2

More Conditions Fewer Conditions

10-Day Weather Forecast

Almanac

Astronomy

Dec. 20, 2014 Rise Set
Actual Time
Civil Twilight
Nautical Twilight
Astronomical Twilight
Moon
Length of Visible Light
Length of Day
Tomorrow will be .
, % of the Moon is Illuminated

Today's Extremes

State Highs State Lows

Community

WunderPhotos

Upload Photos

1,779,285 photos uploaded!

WunderBlogs® & News

Nearby

Air Quality

  Air Quality AQ Index Pollutant
Not available.

Snow Depth

Station Depth Elevation

Earthquake Activity

City Distance Mag. Time & Date
Minimum magnitude displayed is 2.5.

Coastal Water Temperatures

Place Temperature

Nearby Weather Stations